createdAt,value
2023-03-13T00:00:12.762Z,17.10
2023-03-13T00:02:36.063Z,16.55
2023-03-13T00:04:59.373Z,19.55
2023-03-13T00:07:24.481Z,18.45
2023-03-13T00:09:47.755Z,20.92
2023-03-13T00:12:11.254Z,20.27
2023-03-13T00:14:34.600Z,17.35
2023-03-13T00:16:59.301Z,19.67
2023-03-13T00:19:22.679Z,18.38
2023-03-13T00:21:46.115Z,24.33
2023-03-13T00:24:12.682Z,21.88
2023-03-13T00:26:36.140Z,21.17
2023-03-13T00:28:59.727Z,20.75
2023-03-13T00:31:25.733Z,20.48
2023-03-13T00:33:51.952Z,16.50
2023-03-13T00:36:20.584Z,17.20
2023-03-13T00:38:44.485Z,19.27
2023-03-13T00:41:12.340Z,19.65
2023-03-13T00:43:36.300Z,17.73
2023-03-13T00:45:59.951Z,22.08
2023-03-13T00:48:23.742Z,21.40
2023-03-13T00:50:47.085Z,19.85
2023-03-13T00:53:11.320Z,23.23
2023-03-13T00:55:34.808Z,18.25
2023-03-13T00:57:59.365Z,20.80
2023-03-13T01:00:23.453Z,17.67
2023-03-13T01:02:48.514Z,16.95
2023-03-13T01:05:13.333Z,23.52
2023-03-13T01:07:36.703Z,19.27
2023-03-13T01:09:59.925Z,22.63
2023-03-13T01:12:23.190Z,21.52
2023-03-13T01:14:50.952Z,26.38
2023-03-13T01:17:14.202Z,21.65
2023-03-13T01:19:37.620Z,17.35
2023-03-13T01:22:00.945Z,18.90
2023-03-13T01:24:24.655Z,19.73
2023-03-13T01:26:48.332Z,17.75
2023-03-13T01:29:12.452Z,27.20
2023-03-13T01:31:38.150Z,20.00
2023-03-13T01:34:06.633Z,19.05
2023-03-13T01:36:30.641Z,16.75
2023-03-13T01:38:55.707Z,16.92
2023-03-13T01:41:20.747Z,19.88
2023-03-13T01:43:46.824Z,24.42
2023-03-13T01:46:16.462Z,23.00
2023-03-13T01:49:07.717Z,22.58
2023-03-13T01:51:42.731Z,19.58
2023-03-13T01:54:11.888Z,20.05
2023-03-13T01:56:41.321Z,19.50
2023-03-13T01:59:06.631Z,17.80
2023-03-13T02:01:30.955Z,13.77
2023-03-13T02:03:55.227Z,17.08
2023-03-13T02:06:20.224Z,15.85
2023-03-13T02:08:49.199Z,21.90
2023-03-13T02:11:24.937Z,15.98
2023-03-13T02:13:50.102Z,19.55
2023-03-13T02:16:13.620Z,17.60
2023-03-13T02:18:38.877Z,19.42
2023-03-13T02:21:12.798Z,16.60
2023-03-13T02:23:45.989Z,19.58
2023-03-13T02:26:10.866Z,19.98
2023-03-13T02:28:39.108Z,16.98
2023-03-13T02:31:07.706Z,14.13
2023-03-13T02:33:37.313Z,17.40
2023-03-13T02:36:03.169Z,16.50
2023-03-13T02:38:31.284Z,16.83
2023-03-13T02:40:56.810Z,15.18
2023-03-13T02:43:27.165Z,12.82
2023-03-13T02:46:08.796Z,13.27
2023-03-13T02:48:39.905Z,15.55
2023-03-13T02:51:07.119Z,13.95
2023-03-13T02:53:30.924Z,11.95
2023-03-13T02:55:54.781Z,13.48
2023-03-13T02:58:18.126Z,11.63
2023-03-13T03:00:42.890Z,9.15
2023-03-13T03:03:06.243Z,9.93
2023-03-13T03:05:30.011Z,13.60
2023-03-13T03:07:54.430Z,10.15
2023-03-13T03:10:18.869Z,10.02
2023-03-13T03:12:42.429Z,9.00
2023-03-13T03:15:06.748Z,11.10
2023-03-13T03:17:33.772Z,5.75
2023-03-13T03:19:57.099Z,8.80
2023-03-13T03:22:20.448Z,7.55
2023-03-13T03:24:43.792Z,7.40
2023-03-13T03:27:07.320Z,10.25
2023-03-13T03:29:36.917Z,9.82
2023-03-13T03:32:00.853Z,7.22
2023-03-13T03:34:26.036Z,4.97
2023-03-13T03:36:49.879Z,4.22
2023-03-13T03:39:13.404Z,8.85
2023-03-13T03:41:37.429Z,8.70
2023-03-13T03:44:01.652Z,6.82
2023-03-13T03:46:35.172Z,5.80
2023-03-13T03:48:58.683Z,3.22
2023-03-13T03:51:23.761Z,3.88
2023-03-13T03:53:47.254Z,4.47
2023-03-13T03:56:10.786Z,3.97
2023-03-13T03:58:39.306Z,2.83
2023-03-13T04:01:25.558Z,4.45
2023-03-13T04:03:49.165Z,3.97
2023-03-13T04:06:12.848Z,3.58
2023-03-13T04:08:38.024Z,3.30
2023-03-13T04:11:02.731Z,3.47
2023-03-13T04:13:30.210Z,3.38
2023-03-13T04:15:56.590Z,4.22
2023-03-13T04:18:20.813Z,3.85
2023-03-13T04:20:44.432Z,3.88
2023-03-13T04:23:08.334Z,4.03
2023-03-13T04:25:33.092Z,2.30
2023-03-13T04:27:57.918Z,1.98
2023-03-13T04:30:25.733Z,5.72
2023-03-13T04:33:04.470Z,1.98
2023-03-13T04:36:00.406Z,2.15
2023-03-13T04:38:48.156Z,4.40
2023-03-13T04:41:39.137Z,2.03
2023-03-13T04:44:10.960Z,5.32
2023-03-13T04:47:12.555Z,3.28
2023-03-13T04:49:59.093Z,2.83
2023-03-13T04:52:42.617Z,3.35
2023-03-13T04:55:07.069Z,3.75
2023-03-13T04:58:03.817Z,2.30
2023-03-13T05:00:55.004Z,2.75
2023-03-13T05:03:25.618Z,4.57
2023-03-13T05:06:00.808Z,2.60
2023-03-13T05:08:39.518Z,6.05
2023-03-13T05:11:19.559Z,3.40
2023-03-13T05:14:02.583Z,6.50
2023-03-13T05:16:46.436Z,3.13
2023-03-13T05:19:25.628Z,4.72
2023-03-13T05:22:08.855Z,3.83
2023-03-13T05:24:50.647Z,3.03
2023-03-13T05:27:52.576Z,5.03
2023-03-13T05:30:49.539Z,3.92
2023-03-13T05:33:47.634Z,5.05
2023-03-13T05:36:23.660Z,4.95
2023-03-13T05:39:09.898Z,3.83
2023-03-13T05:41:45.221Z,4.50
2023-03-13T05:44:23.692Z,4.25
2023-03-13T05:46:58.545Z,3.67
2023-03-13T05:49:34.308Z,4.35
2023-03-13T05:52:23.910Z,3.38
2023-03-13T05:55:06.906Z,3.38
2023-03-13T05:57:46.762Z,5.85
2023-03-13T06:00:29.396Z,5.53
2023-03-13T06:03:08.626Z,5.22
2023-03-13T06:05:37.126Z,5.28
2023-03-13T06:08:04.923Z,5.60
2023-03-13T06:10:28.245Z,4.88
2023-03-13T06:12:55.503Z,5.07
2023-03-13T06:15:21.683Z,3.60
2023-03-13T06:17:53.126Z,4.82
2023-03-13T06:20:18.502Z,4.70
2023-03-13T06:22:42.670Z,4.18
2023-03-13T06:25:07.532Z,4.88
2023-03-13T06:27:30.968Z,3.70
2023-03-13T06:29:54.292Z,5.43
2023-03-13T06:32:17.629Z,5.05
2023-03-13T06:34:41.151Z,2.75
2023-03-13T06:37:06.112Z,3.38
2023-03-13T06:39:29.858Z,7.60
2023-03-13T06:41:53.410Z,4.53
2023-03-13T06:44:16.764Z,9.00
2023-03-13T06:46:40.202Z,5.88
2023-03-13T06:49:05.866Z,5.20
2023-03-13T06:51:29.216Z,5.90
2023-03-13T06:53:54.136Z,4.90
2023-03-13T06:56:17.447Z,4.75
2023-03-13T06:58:40.841Z,5.25
2023-03-13T07:01:09.153Z,4.85
2023-03-13T07:03:32.494Z,8.85
2023-03-13T07:05:58.132Z,3.38
2023-03-13T07:08:21.497Z,4.72
2023-03-13T07:10:48.609Z,7.00
2023-03-13T07:13:11.914Z,6.72
2023-03-13T07:15:35.336Z,5.82
2023-03-13T07:17:59.628Z,9.65
2023-03-13T07:20:23.009Z,5.47
2023-03-13T07:22:46.447Z,5.43
2023-03-13T07:25:11.326Z,7.57
2023-03-13T07:27:39.008Z,7.07
2023-03-13T07:30:02.789Z,3.92
2023-03-13T07:32:26.188Z,5.88
2023-03-13T07:34:49.881Z,9.18
2023-03-13T07:37:13.601Z,7.10
2023-03-13T07:39:37.021Z,5.68
2023-03-13T07:42:00.365Z,5.38
2023-03-13T07:44:25.324Z,4.93
2023-03-13T07:46:50.126Z,5.13
2023-03-13T07:49:13.516Z,6.05
2023-03-13T07:51:43.514Z,9.38
2023-03-13T07:54:07.785Z,6.05
2023-03-13T07:56:31.880Z,6.43
2023-03-13T07:58:55.212Z,9.30
2023-03-13T08:01:25.542Z,5.95
2023-03-13T08:03:50.732Z,8.07
2023-03-13T08:06:17.016Z,4.50
2023-03-13T08:08:40.974Z,8.80
2023-03-13T08:11:06.534Z,7.88
2023-03-13T08:13:30.430Z,10.25
2023-03-13T08:15:53.679Z,8.00
2023-03-13T08:18:18.296Z,10.13
2023-03-13T08:20:41.891Z,6.25
2023-03-13T08:23:05.762Z,5.03
2023-03-13T08:25:29.079Z,5.38
2023-03-13T08:27:52.607Z,5.55
2023-03-13T08:30:16.811Z,7.22
2023-03-13T08:32:40.217Z,9.20
2023-03-13T08:35:05.796Z,6.03
2023-03-13T08:37:29.025Z,9.45
2023-03-13T08:39:54.218Z,8.93
2023-03-13T08:42:17.549Z,11.30
2023-03-13T08:44:40.879Z,8.45
2023-03-13T08:47:06.951Z,9.70
2023-03-13T08:49:30.884Z,7.30
2023-03-13T08:51:56.309Z,10.75
2023-03-13T08:54:19.690Z,4.95
2023-03-13T08:56:43.638Z,10.43
2023-03-13T08:59:07.597Z,8.80
2023-03-13T09:01:33.290Z,12.60
2023-03-13T09:03:57.861Z,9.32
2023-03-13T09:06:21.603Z,10.77
2023-03-13T09:08:46.832Z,11.57
2023-03-13T09:11:12.601Z,8.35
2023-03-13T09:13:38.942Z,9.95
2023-03-13T09:16:04.488Z,11.55
2023-03-13T09:18:28.899Z,9.43
2023-03-13T09:20:52.888Z,7.82
2023-03-13T09:23:16.161Z,8.43
2023-03-13T09:25:41.090Z,11.07
2023-03-13T09:28:04.508Z,12.25
2023-03-13T09:30:27.831Z,8.02
2023-03-13T09:32:51.196Z,8.40
2023-03-13T09:35:14.476Z,6.80
2023-03-13T09:37:37.723Z,5.93
2023-03-13T09:40:01.072Z,7.63
2023-03-13T09:42:35.868Z,7.35
2023-03-13T09:45:04.215Z,5.20
2023-03-13T09:47:35.606Z,6.85
2023-03-13T09:50:04.789Z,9.00
2023-03-13T09:52:33.013Z,7.45
2023-03-13T09:55:00.851Z,8.15
2023-03-13T09:57:35.548Z,6.07
2023-03-13T10:00:02.239Z,7.68
2023-03-13T10:02:33.597Z,12.18
2023-03-13T10:05:06.621Z,6.40
2023-03-13T10:07:29.991Z,5.65
2023-03-13T10:09:53.786Z,6.32
2023-03-13T10:12:21.983Z,7.78
2023-03-13T10:14:58.570Z,10.75
2023-03-13T10:17:33.200Z,4.88
2023-03-13T10:20:02.004Z,5.63
2023-03-13T10:22:30.109Z,6.18
2023-03-13T10:24:58.025Z,7.28
2023-03-13T10:27:21.307Z,7.38
2023-03-13T10:29:46.141Z,5.40
2023-03-13T10:32:14.189Z,4.45
2023-03-13T10:34:51.305Z,8.63
2023-03-13T10:37:17.364Z,8.32
2023-03-13T10:39:40.710Z,8.27
2023-03-13T10:42:12.804Z,6.78
2023-03-13T10:44:36.112Z,2.85
2023-03-13T10:47:03.900Z,10.02
2023-03-13T10:49:27.273Z,3.88
2023-03-13T10:51:53.122Z,4.65
2023-03-13T10:54:23.570Z,6.22
2023-03-13T10:56:46.831Z,2.47
2023-03-13T10:59:22.987Z,5.40
2023-03-13T11:01:46.446Z,5.90
2023-03-13T11:04:30.672Z,6.45
2023-03-13T11:07:00.141Z,3.88
2023-03-13T11:09:24.396Z,5.32
2023-03-13T11:11:50.965Z,4.68
2023-03-13T11:14:20.385Z,5.53
2023-03-13T11:16:49.436Z,3.13
2023-03-13T11:19:55.156Z,4.47
2023-03-13T11:22:38.781Z,17.10
2023-03-13T11:25:21.633Z,4.78
2023-03-13T11:27:54.649Z,4.43
2023-03-13T11:30:40.302Z,5.43
2023-03-13T11:33:07.093Z,8.57
2023-03-13T11:35:41.904Z,1.45
2023-03-13T11:38:16.796Z,3.78
2023-03-13T11:40:48.556Z,4.72
2023-03-13T11:43:33.638Z,5.30
2023-03-13T11:46:24.417Z,1.38
2023-03-13T11:49:30.817Z,3.17
2023-03-13T11:52:08.199Z,3.88
2023-03-13T11:55:02.087Z,5.93
2023-03-13T11:57:30.867Z,6.45
2023-03-13T12:00:17.770Z,2.92
2023-03-13T12:02:47.874Z,4.28
2023-03-13T12:05:16.484Z,1.30
2023-03-13T12:07:45.512Z,5.13
2023-03-13T12:10:16.100Z,2.45
2023-03-13T12:12:45.555Z,5.85
2023-03-13T12:15:21.771Z,4.18
2023-03-13T12:17:52.457Z,1.55
2023-03-13T12:20:24.545Z,2.13
2023-03-13T12:22:58.221Z,2.55
2023-03-13T12:25:26.117Z,9.43
2023-03-13T12:27:53.485Z,3.70
2023-03-13T12:30:29.089Z,3.72
2023-03-13T12:33:02.236Z,1.55
2023-03-13T12:35:29.837Z,4.03
2023-03-13T12:38:03.968Z,2.35
2023-03-13T12:40:33.642Z,2.40
2023-03-13T12:43:02.998Z,2.40
2023-03-13T12:45:29.416Z,3.67
2023-03-13T12:48:24.442Z,2.63
2023-03-13T12:51:09.825Z,5.32
2023-03-13T12:54:08.718Z,1.67
2023-03-13T12:56:55.817Z,3.65
2023-03-13T12:59:23.361Z,1.50
2023-03-13T13:01:51.836Z,1.42
2023-03-13T13:04:18.427Z,4.10
2023-03-13T13:06:59.450Z,2.45
2023-03-13T13:09:26.613Z,3.00
2023-03-13T13:11:52.338Z,2.15
2023-03-13T13:15:04.023Z,2.95
2023-03-13T13:17:58.751Z,2.15
2023-03-13T13:20:46.205Z,2.50
2023-03-13T13:23:34.673Z,3.38
2023-03-13T13:26:50.832Z,5.55
2023-03-13T13:30:00.222Z,4.82
2023-03-13T13:32:46.386Z,8.15
2023-03-13T13:35:32.757Z,3.45
2023-03-13T13:38:34.416Z,2.17
2023-03-13T13:41:05.410Z,2.75
2023-03-13T13:43:34.454Z,1.83
2023-03-13T13:46:06.003Z,3.28
2023-03-13T13:48:34.182Z,2.13
2023-03-13T13:51:26.114Z,3.53
2023-03-13T13:53:52.972Z,8.68
2023-03-13T13:56:42.783Z,2.85
2023-03-13T13:59:40.298Z,2.92
2023-03-13T14:02:26.485Z,3.88
2023-03-13T14:04:58.336Z,2.47
2023-03-13T14:07:31.108Z,2.20
2023-03-13T14:10:04.883Z,2.65
2023-03-13T14:12:30.979Z,2.10
2023-03-13T14:15:14.601Z,1.80
2023-03-13T14:17:44.099Z,4.00
2023-03-13T14:20:21.244Z,3.33
2023-03-13T14:22:48.240Z,2.88
2023-03-13T14:25:12.222Z,6.60
2023-03-13T14:27:35.512Z,2.35
2023-03-13T14:30:02.538Z,1.95
2023-03-13T14:32:29.314Z,3.38
2023-03-13T14:34:52.640Z,4.63
2023-03-13T14:37:36.745Z,3.25
2023-03-13T14:40:09.945Z,4.30
2023-03-13T14:42:40.633Z,1.92
2023-03-13T14:45:14.904Z,2.10
2023-03-13T14:47:39.826Z,5.78
2023-03-13T14:50:06.719Z,2.20
2023-03-13T14:52:32.428Z,5.53
2023-03-13T14:54:58.514Z,3.00
2023-03-13T14:57:26.893Z,3.00
2023-03-13T14:59:51.524Z,2.33
2023-03-13T15:02:21.513Z,2.97
2023-03-13T15:04:59.665Z,3.53
2023-03-13T15:07:24.533Z,1.30
2023-03-13T15:09:50.628Z,1.20
2023-03-13T15:12:16.825Z,2.75
2023-03-13T15:14:42.803Z,2.10
2023-03-13T15:17:16.774Z,2.65
2023-03-13T15:19:40.165Z,3.67
2023-03-13T15:22:04.817Z,2.42
2023-03-13T15:24:28.084Z,1.65
2023-03-13T15:26:51.434Z,1.27
2023-03-13T15:29:14.861Z,3.88
2023-03-13T15:31:39.689Z,2.97
2023-03-13T15:34:03.175Z,4.28
2023-03-13T15:36:27.315Z,2.35
2023-03-13T15:38:52.749Z,4.55
2023-03-13T15:41:16.267Z,1.92
2023-03-13T15:43:39.649Z,4.18
2023-03-13T15:46:05.631Z,4.88
2023-03-13T15:48:31.535Z,4.10
2023-03-13T15:50:59.980Z,2.53
2023-03-13T15:53:26.034Z,5.28
2023-03-13T15:55:51.398Z,2.67
2023-03-13T15:58:14.742Z,2.67
2023-03-13T16:00:38.091Z,3.30
2023-03-13T16:03:01.617Z,1.63
2023-03-13T16:05:24.922Z,3.17
2023-03-13T16:07:48.377Z,3.30
2023-03-13T16:10:20.047Z,6.47
2023-03-13T16:12:44.688Z,3.20
2023-03-13T16:15:10.836Z,3.60
2023-03-13T16:17:34.138Z,6.20
2023-03-13T16:19:57.574Z,6.20
2023-03-13T16:22:21.037Z,3.85
2023-03-13T16:24:44.367Z,4.40
2023-03-13T16:27:15.096Z,4.10
2023-03-13T16:29:39.804Z,5.32
2023-03-13T16:32:03.314Z,6.55
2023-03-13T16:34:27.207Z,5.63
2023-03-13T16:36:50.601Z,4.40
2023-03-13T16:39:16.658Z,2.83
2023-03-13T16:41:39.971Z,5.07
2023-03-13T16:44:03.680Z,5.78
2023-03-13T16:46:36.272Z,7.95
2023-03-13T16:48:59.829Z,6.47
2023-03-13T16:51:25.197Z,4.43
2023-03-13T16:53:51.008Z,6.05
2023-03-13T16:56:28.287Z,5.65
2023-03-13T16:58:52.143Z,5.20
2023-03-13T17:01:15.497Z,7.30
2023-03-13T17:03:40.199Z,4.53
2023-03-13T17:06:03.858Z,5.20
2023-03-13T17:08:27.321Z,4.85
2023-03-13T17:10:50.507Z,4.95
2023-03-13T17:13:13.713Z,6.38
2023-03-13T17:15:37.182Z,3.95
2023-03-13T17:18:00.662Z,4.40
2023-03-13T17:20:28.050Z,4.60
2023-03-13T17:22:51.465Z,3.90
2023-03-13T17:25:15.324Z,8.15
2023-03-13T17:27:39.172Z,4.82
2023-03-13T17:30:02.422Z,4.47
2023-03-13T17:32:26.142Z,7.13
2023-03-13T17:34:49.497Z,5.70
2023-03-13T17:37:18.451Z,5.25
2023-03-13T17:39:43.275Z,6.15
2023-03-13T17:42:06.703Z,4.78
2023-03-13T17:44:29.997Z,6.03
2023-03-13T17:46:53.813Z,9.70
2023-03-13T17:49:20.345Z,5.43
2023-03-13T17:51:47.608Z,5.70
2023-03-13T17:54:14.513Z,7.97
2023-03-13T17:56:41.458Z,6.28
2023-03-13T17:59:04.878Z,6.18
2023-03-13T18:01:31.167Z,6.05
2023-03-13T18:03:55.241Z,9.30
2023-03-13T18:06:22.763Z,4.18
2023-03-13T18:08:46.011Z,5.45
2023-03-13T18:11:12.581Z,6.85
2023-03-13T18:13:36.985Z,5.78
2023-03-13T18:16:01.409Z,4.30
2023-03-13T18:18:24.736Z,3.90
2023-03-13T18:20:48.052Z,7.70
2023-03-13T18:23:11.367Z,6.10
2023-03-13T18:25:35.274Z,6.95
2023-03-13T18:28:00.303Z,5.20
2023-03-13T18:30:26.737Z,6.25
2023-03-13T18:32:50.456Z,4.22
2023-03-13T18:35:14.730Z,7.78
2023-03-13T18:37:38.165Z,5.95
2023-03-13T18:40:02.062Z,3.88
2023-03-13T18:42:25.992Z,7.20
2023-03-13T18:44:50.928Z,7.07
2023-03-13T18:47:16.821Z,7.97
2023-03-13T18:49:40.188Z,8.70
2023-03-13T18:52:03.539Z,5.20
2023-03-13T18:54:26.995Z,5.78
2023-03-13T18:56:50.373Z,7.60
2023-03-13T18:59:15.603Z,8.23
2023-03-13T19:01:40.421Z,3.75
2023-03-13T19:04:03.778Z,8.32
2023-03-13T19:06:29.373Z,8.63
2023-03-13T19:08:54.983Z,5.13
2023-03-13T19:11:20.896Z,9.43
2023-03-13T19:13:44.524Z,5.45
2023-03-13T19:16:15.926Z,4.80
2023-03-13T19:18:40.662Z,9.07
2023-03-13T19:21:03.953Z,10.15
2023-03-13T19:23:27.301Z,7.07
2023-03-13T19:25:52.439Z,6.57
2023-03-13T19:28:16.243Z,6.18
2023-03-13T19:30:39.508Z,6.13
2023-03-13T19:33:02.924Z,8.27
2023-03-13T19:35:27.690Z,5.78
2023-03-13T19:37:51.167Z,7.78
2023-03-13T19:40:20.805Z,4.82
2023-03-13T19:42:44.732Z,9.07
2023-03-13T19:45:09.733Z,8.15
2023-03-13T19:47:33.081Z,6.15
2023-03-13T19:49:58.091Z,7.20
2023-03-13T19:52:23.493Z,5.13
2023-03-13T19:54:46.876Z,4.60
2023-03-13T19:57:12.058Z,5.20
2023-03-13T19:59:38.701Z,7.68
2023-03-13T20:02:04.307Z,9.82
2023-03-13T20:04:28.213Z,7.57
2023-03-13T20:06:51.521Z,8.15
2023-03-13T20:09:18.388Z,8.10
2023-03-13T20:11:42.207Z,7.55
2023-03-13T20:14:06.403Z,10.43
2023-03-13T20:16:33.619Z,8.68
2023-03-13T20:19:00.160Z,8.35
2023-03-13T20:21:24.646Z,7.38
2023-03-13T20:23:50.576Z,10.05
2023-03-13T20:26:17.554Z,6.75
2023-03-13T20:28:42.992Z,7.43
2023-03-13T20:31:07.794Z,9.23
2023-03-13T20:33:31.247Z,7.60
2023-03-13T20:35:58.762Z,8.98
2023-03-13T20:38:22.080Z,6.95
2023-03-13T20:40:53.148Z,6.82
2023-03-13T20:43:17.721Z,7.60
2023-03-13T20:45:40.964Z,7.15
2023-03-13T20:48:04.234Z,7.60
2023-03-13T20:50:27.906Z,10.00
2023-03-13T20:52:51.408Z,8.85
2023-03-13T20:55:14.824Z,11.05
2023-03-13T20:57:38.309Z,7.97
2023-03-13T21:00:03.945Z,7.38
2023-03-13T21:02:27.234Z,9.13
2023-03-13T21:04:50.499Z,6.88
2023-03-13T21:07:13.818Z,7.70
2023-03-13T21:09:37.077Z,9.93
2023-03-13T21:12:01.098Z,5.05
2023-03-13T21:14:24.451Z,12.35
2023-03-13T21:16:49.098Z,8.00
2023-03-13T21:19:12.369Z,8.00
2023-03-13T21:21:35.617Z,9.95
2023-03-13T21:23:58.899Z,8.70
2023-03-13T21:26:22.444Z,8.45
2023-03-13T21:28:51.048Z,5.82
2023-03-13T21:31:16.414Z,9.32
2023-03-13T21:33:42.300Z,7.97
2023-03-13T21:36:06.304Z,7.07
2023-03-13T21:38:29.661Z,5.70
2023-03-13T21:40:52.967Z,7.95
2023-03-13T21:43:16.269Z,8.15
2023-03-13T21:45:39.572Z,5.35
2023-03-13T21:48:02.949Z,10.73
2023-03-13T21:50:28.219Z,6.53
2023-03-13T21:52:51.649Z,13.13
2023-03-13T21:55:15.338Z,8.45
2023-03-13T21:57:38.700Z,9.25
2023-03-13T22:00:02.029Z,4.55
2023-03-13T22:02:30.734Z,8.65
2023-03-13T22:04:53.967Z,6.13
2023-03-13T22:07:18.667Z,8.57
2023-03-13T22:09:41.872Z,8.98
2023-03-13T22:12:05.610Z,7.47
2023-03-13T22:14:28.826Z,7.30
2023-03-13T22:16:52.234Z,5.72
2023-03-13T22:19:17.366Z,5.93
2023-03-13T22:21:40.784Z,8.38
2023-03-13T22:24:06.780Z,5.05
2023-03-13T22:26:31.168Z,6.45
2023-03-13T22:28:54.434Z,6.47
2023-03-13T22:31:18.538Z,7.80
2023-03-13T22:33:41.932Z,8.02
2023-03-13T22:36:06.380Z,6.57
2023-03-13T22:38:30.055Z,9.35
2023-03-13T22:41:01.610Z,8.52
2023-03-13T22:43:24.926Z,8.88
2023-03-13T22:45:48.923Z,7.45
2023-03-13T22:48:12.246Z,5.95
2023-03-13T22:50:35.810Z,8.88
2023-03-13T22:52:59.169Z,5.15
2023-03-13T22:55:22.419Z,6.53
2023-03-13T22:57:47.159Z,8.35
2023-03-13T23:00:12.529Z,8.43
2023-03-13T23:02:35.870Z,8.63
2023-03-13T23:05:01.142Z,5.90
2023-03-13T23:07:24.701Z,9.32
2023-03-13T23:09:47.960Z,11.50
2023-03-13T23:12:11.598Z,10.02
2023-03-13T23:14:36.320Z,5.65
2023-03-13T23:16:59.842Z,9.30
2023-03-13T23:19:23.162Z,6.25
2023-03-13T23:21:46.493Z,5.80
2023-03-13T23:24:10.167Z,5.70
2023-03-13T23:26:33.517Z,5.53
2023-03-13T23:28:56.866Z,6.68
2023-03-13T23:31:23.369Z,7.07
2023-03-13T23:33:47.311Z,8.20
2023-03-13T23:36:14.092Z,5.38
2023-03-13T23:38:37.678Z,8.98
2023-03-13T23:41:01.109Z,6.10
2023-03-13T23:43:24.438Z,7.97
2023-03-13T23:45:47.761Z,7.38
2023-03-13T23:48:12.409Z,7.95
2023-03-13T23:50:37.421Z,6.78
2023-03-13T23:53:00.702Z,5.25
2023-03-13T23:55:23.997Z,8.57
2023-03-13T23:57:50.386Z,5.95
